»·PEaware :: SKY171 KCLM-KFHR

SKY171 :: KCLM-KFHR

FLIGHT INFORMATION

Flight Status: Arrived
Operator:
Sky High Charters
More flights by this operator :: More flights under this callsign
Pilot: Tim M. (868)
Aircraft: BEECH AIRCRAFT BARON
(BE58)
More flights by this aircraft type
Origin: KCLM Fairchild Intl
United States
Destination: KFHR Friday Harbor
United States
More flights between these airports :: More routes between these airports
Route: WATTR7 WATTR
File this flight plan on PilotEdge
Remarks: +CW / SKY-3
Altitude:
(Current/Filed)
5,000ft
Speed:
(Current/Filed)
180kts
Departed: 04-Dec-19 06:39 PM
Arrived: 04-Dec-19 07:08 PM
Distance/Time
Traveled:
31nm/0:28
Distance/Time
To Go:
Arrived

Flight Plot

Page will automatically refresh every two minutes.

Flight plan parsing failed; only flown route is shown


Map Options




Map Legend


Flown Route
Filed Route
Departure Airport
Arrival Airport
Navaid (VOR, NDB)
Fix

Horizontal Profiles

Position Reports

Time Latitude Longitude Heading Altitude Ground
Speed
04-Dec-19 18:16 48.116304 -123.491808 195 287ft 0kts
04-Dec-19 18:17 48.116304 -123.491808 195 287ft 0kts
04-Dec-19 18:18 48.116304 -123.491808 195 287ft 0kts
04-Dec-19 18:19 48.116304 -123.491808 195 287ft 0kts
04-Dec-19 18:20 48.116304 -123.491808 195 287ft 0kts
04-Dec-19 18:21 48.116304 -123.491808 195 287ft 0kts
04-Dec-19 18:22 48.116304 -123.491808 195 287ft 0kts
04-Dec-19 18:23 48.116304 -123.491808 195 287ft 0kts
04-Dec-19 18:24 48.116304 -123.491808 195 287ft 0kts
04-Dec-19 18:25 48.116304 -123.491808 195 287ft 0kts
04-Dec-19 18:26 48.116304 -123.491808 195 287ft 0kts
04-Dec-19 18:27 48.116304 -123.491808 195 287ft 0kts
04-Dec-19 18:28 48.116304 -123.491808 195 287ft 0kts
04-Dec-19 18:29 48.116895 -123.492301 299 281ft 9kts
04-Dec-19 18:30 48.117749 -123.497485 324 269ft 10kts
04-Dec-19 18:31 48.118954 -123.497523 325 268ft 0kts
04-Dec-19 18:32 48.118954 -123.497523 325 268ft 0kts
04-Dec-19 18:33 48.118954 -123.497523 325 268ft 0kts
04-Dec-19 18:34 48.118954 -123.497523 325 268ft 0kts
04-Dec-19 18:35 48.118954 -123.497523 325 268ft 0kts
04-Dec-19 18:36 48.118954 -123.497523 325 268ft 0kts
04-Dec-19 18:37 48.118954 -123.497523 325 268ft 0kts
04-Dec-19 18:38 48.122117 -123.500549 328 258ft 84kts
04-Dec-19 18:39 48.143956 -123.505461 73 1208ft 97kts
04-Dec-19 18:40 48.141503 -123.455279 91 1543ft 152kts
04-Dec-19 18:41 48.139477 -123.397532 93 2779ft 141kts
04-Dec-19 18:42 48.138638 -123.337325 92 4066ft 141kts
04-Dec-19 18:43 48.138122 -123.278904 92 5005ft 163kts
04-Dec-19 18:44 48.137317 -123.201630 93 4991ft 194kts
04-Dec-19 18:45 48.133948 -123.120578 91 4989ft 195kts
04-Dec-19 18:46 48.134911 -123.039035 90 4995ft 195kts
04-Dec-19 18:47 48.136106 -122.957268 90 5002ft 197kts
04-Dec-19 18:48 48.163011 -122.893104 12 5008ft 198kts
04-Dec-19 18:49 48.214489 -122.904089 348 4355ft 144kts
04-Dec-19 18:50 48.244684 -122.908536 347 3417ft 123kts
04-Dec-19 18:51 48.278813 -122.917942 346 2882ft 116kts
04-Dec-19 18:52 48.309875 -122.929236 341 2830ft 137kts
04-Dec-19 18:53 48.345854 -122.944277 340 3015ft 141kts
04-Dec-19 18:54 48.387468 -122.962209 345 3071ft 169kts
04-Dec-19 18:55 48.432367 -122.982457 341 2888ft 176kts
04-Dec-19 18:56 48.476540 -123.003387 339 2936ft 170kts
04-Dec-19 18:57 48.520011 -123.025636 358 2938ft 168kts
04-Dec-19 18:58 48.524731 -122.986534 181 3313ft 118kts
04-Dec-19 18:59 48.486979 -123.006904 177 2636ft 167kts
04-Dec-19 19:00 48.444505 -123.004426 184 2357ft 130kts
04-Dec-19 19:01 48.421725 -122.977689 127 2260ft 108kts
04-Dec-19 19:03 48.399487 -122.948716 210 2464ft 117kts
04-Dec-19 19:04 48.413431 -122.986604 329 2355ft 141kts
04-Dec-19 19:05 48.447541 -123.008729 341 1208ft 106kts
04-Dec-19 19:06 48.472080 -123.020037 348 902ft 88kts
04-Dec-19 19:07 48.497438 -123.022362 357 507ft 88kts
04-Dec-19 19:08 48.520504 -123.024255 351 92ft 40kts
04-Dec-19 19:09 48.523812 -123.025087 354 103ft 0kts
04-Dec-19 19:10 48.524380 -123.025741 192 108ft 0kts
04-Dec-19 19:11 48.524380 -123.025741 192 108ft 0kts
04-Dec-19 19:12 48.524380 -123.025741 192 108ft 0kts
04-Dec-19 19:13 48.524380 -123.025741 192 108ft 0kts

Navigation Log

Ident Type
Flight plan parsing failed, navigation log unavailable